Tiempo atmosférico en la estación meteorológica de Daroca, Zaragoza (779 m.)



Fecha
DESCASC
Temp. máxima en grados centígrados (hora)
DESCASC
Temp. mínima en grados centígrados (hora)
DESCASC
Temp. media en grados centígrados
DESCASC
Racha de viento máxima en m/sg (hora)
DESCASC
Velocidad máxima media en intervalos de 10 minutos(hora)
DESCASC
Precipitaciones diarias en mm
DESCASC
Precipitaciones de 00:00 a 06:00 en mm
DESCASC
Precipitaciones de 06:00 a 12:00 en mm
DESCASC
Precipitaciones de 12:00 a 18:00 en mm
DESCASC
Precipitaciones de 18:00 a 24:00 en mm
DESCASC
18-01-2018 13.4 (15:10) -3.3 (08:40) 5 3.89 (15:00) 2.22 (15:00) 0 0 0 0 0
17-01-2018 12.7 (14:50) -0.1 (23:59) 6.3 10 (11:30) 4.44 (00:40) 0 0 0 0 0
16-01-2018 11.1 (14:40) -0.9 (01:30) 5.1 11.39 (15:50) 5.28 (15:10) 0 0 0 0 0
15-01-2018 7.1 (14:20) -0.2 (08:40) 3.4 6.67 (15:20) 2.5 (07:00) 0 0 0 0 0
14-01-2018 5.9 (15:10) 1.9 (00:00) 3.9 8.33 (01:50) 3.89 (13:50) 0 0 0 0 0
13-01-2018 7.1 (15:40) -1.3 (-00:0) 2.9 5.56 (18:20) 1.94 (16:40) 3 0 0 0 3
12-01-2018 7.9 (15:30) -0.4 (00:00) 3.8 7.78 (16:30) 4.17 (12:40) 0 0 0 0 0
11-01-2018 6.9 (14:40) 1.9 (00:00) 4.4 13.33 (12:10) 6.11 (14:00) 3.2 0 0 0 3.2
10-01-2018 8.2 (13:50) 2.3 (00:00) 5.2 15.56 (22:20) 7.78 (16:20) 0 0 0 0 0
09-01-2018 5.6 (14:00) -6.3 (-00:0) -0.4 9.44 (13:40) 4.44 (14:30) 0 0 0 0 0
08-01-2018 7.9 (14:50) -5.5 (-00:0) 1.2 4.17 (14:10) 2.22 (12:50) 0 0 0 0 0
07-01-2018 7.8 (15:30) -2.2 (-00:0) 2.8 6.67 (14:50) 2.78 (14:50) 0 0 0 0 0
06-01-2018 9.2 (00:10) 0.5 (00:00) 4.8 11.94 (04:50) 5.28 (04:40) 3.2 0.8 0.2 0.6 1.6
05-01-2018 13 (15:30) 8.9 (00:00) 10.9 13.89 (14:10) 6.94 (14:10) 0 0 0 0 0
04-01-2018 14.1 (14:10) 10 (22:00) 12.1 13.33 (14:10) 6.39 (12:00) 0 0 0 0 0
03-01-2018 15.3 (14:40) 11.4 (00:00) 13.3 11.94 (11:30) 5 (18:50) 0 0 0 0 0
02-01-2018 13.7 (15:00) 8.1 (00:00) 10.9 12.78 (09:50) 5.83 (04:50) 0 0 0 0 0
01-01-2018 10.9 (14:30) -2.4 (-00:0) 4.2 14.17 (14:10) 7.22 (14:30) 0.2 0.2 0 0 0
31-12-2017 12.5 (15:00) 0.6 (00:00) 6.6 12.78 (15:50) 6.67 (19:00) 0.2 0 0 0 0.2
30-12-2017 14.5 (15:10) 4 (00:00) 9.3 10.83 (11:10) 5.56 (04:10) 0 0 0 0 0
29-12-2017 14.7 (15:20) 0.9 (00:00) 7.8 10.56 (13:30) 5 (14:40) 0.2 0 0.2 0 0
28-12-2017 11.9 (16:30) 4.1 (00:00) 8 11.94 (16:50) 4.72 (16:30) 0.4 0 0 0.4 0
27-12-2017 7.4 (12:40) 4.5 (00:00) 6 19.17 (01:40) 10 (01:40) 2.6 2.6 0 0 0
26-12-2017 7.6 (01:40) 5 (00:00) 6.3 16.39 (22:40) 8.06 (23:40) 0 0 0 0 0
25-12-2017 11.5 (15:30) -6.3 (-00:0) 2.6 8.06 (17:40) 3.89 (17:00) 0 0 0 0 0
24-12-2017 14.1 (14:30) -4.8 (-00:0) 4.7 3.33 (16:10) 1.67 (16:30) 0 0 0 0 0
23-12-2017 13.2 (15:30) -2 (-00:0) 5.6 3.33 (12:10) 1.11 (01:20) 0 0 0 0 0
22-12-2017 12.5 (15:30) -4.7 (-00:0) 3.9 5.28 (15:40) 2.5 (15:00) 0 0 0 0 0
21-12-2017 13 (15:30) -5.5 (-00:0) 3.8 3.89 (14:20) 1.94 (14:20) 0 0 0 0 0

Gráficas

Temp. máximas Temp. mínimas Temp. medias Precipitaciones Rachas de viento máximas Velocidades máximas media en intervalos de 10 minutos

Datos horarios

Fecha y hora oficial Temperatura (ºC) Velocidad del viento (km/h) Dirección del viento Racha (km/h) Dirección de racha Precipitación (mm) Presión (hPa) Tendencia (hPa) Humedad (%)
2018-01-19 23:00:00 1.5 4 Este 8 Nordeste 0 -- -- 88
2018-01-19 22:00:00 3.5 2 Este 6 Norte 0 -- -- 86
2018-01-19 21:00:00 6 2 Nordeste 11 Nordeste 0 -- -- 83
2018-01-19 20:00:00 7.3 6 Nordeste 22 Norte 0 -- -- 81
2018-01-19 19:00:00 8.4 9 Nordeste 23 Nordeste 0 -- -- 79
2018-01-19 18:00:00 10 8 Nordeste 20 Nordeste 0 -- -- 71
2018-01-19 17:00:00 11.7 8 Norte 19 Noroeste 0 -- -- 56
2018-01-19 16:00:00 12.7 9 Norte 21 Noroeste 0 -- -- 49
2018-01-19 15:00:00 12.3 9 Sudoeste 22 Sudoeste 0 -- -- 51
2018-01-19 14:00:00 10.8 11 Sudoeste 19 Sudoeste 0 -- -- 57
2018-01-19 13:00:00 7.5 4 Sudoeste 9 Sudoeste 0 -- -- 69
2018-01-19 12:00:00 3.6 2 Sudoeste 8 Sur 0 -- -- 79
2018-01-19 11:00:00 0.2 0 Calma 5 Sudeste 0 -- -- 88
2018-01-19 10:00:00 -1.8 0 Calma 7 Nordeste 0 -- -- 90
2018-01-19 09:00:00 -2.9 0 Calma 5 Nordeste 0 -- -- 91
2018-01-19 08:00:00 -2.8 3 Este 6 Nordeste 0 -- -- 90
2018-01-19 07:00:00 -2.5 0 Calma 5 Este 0 -- -- 91
2018-01-19 06:00:00 -2.5 2 Este 5 Nordeste 0 -- -- 90
2018-01-19 05:00:00 -1.9 0 Calma 6 Este 0 -- -- 90
2018-01-19 04:00:00 -1.7 3 Nordeste 8 Nordeste 0 -- -- 89
2018-01-19 03:00:00 -1.5 0 Calma 5 Nordeste 0 -- -- 89
2018-01-19 02:00:00 -1.1 3 Nordeste 6 Nordeste 0 -- -- 88
2018-01-19 01:00:00 -0.7 2 Nordeste 8 Nordeste 0 -- -- 88
2018-01-19 00:00:00 -0.3 2 Este 5 Nordeste 0 -- -- 85
2018-01-18 23:00:00 0.4 2 Este 6 Este 0 -- -- 84
2018-01-18 22:00:00 1.4 3 Este 7 Este 0 -- -- 81
2018-01-18 21:00:00 2.4 3 Este 5 Este 0 -- -- 78
2018-01-18 20:00:00 3.6 3 Nordeste 7 Nordeste 0 -- -- 74
2018-01-18 19:00:00 5.8 3 Este 6 Nordeste 0 -- -- 65
2018-01-18 18:00:00 9.1 2 Este 10 Sudoeste 0 -- -- 53
2018-01-18 17:00:00 11.9 5 Sudoeste 10 Sur 0 -- -- 44
2018-01-18 16:00:00 13.1 3 Sudoeste 13 Sudoeste 0 -- -- 43
2018-01-18 15:00:00 13.2 8 Sudoeste 14 Sudoeste 0 -- -- 44
2018-01-18 14:00:00 12.4 2 Sur 6 Sudoeste 0 -- -- 48
2018-01-18 13:00:00 8.6 4 Sudoeste 9 Sur 0 -- -- 59
2018-01-18 12:00:00 4.9 2 Oeste 5 Sudeste 0 -- -- 72
2018-01-18 11:00:00 1.9 2 Este 5 Este 0 -- -- 85
2018-01-18 10:00:00 -1.8 0 Calma 4 Sudeste 0 -- -- 92
2018-01-18 09:00:00 -3.3 2 Este 4 Nordeste 0 -- -- 90
2018-01-18 08:00:00 -3.2 3 Este 8 Este 0 -- -- 90
2018-01-18 07:00:00 -2.8 3 Este 9 Este 0 -- -- 90
2018-01-18 06:00:00 -2.5 4 Nordeste 7 Nordeste 0 -- -- 90
2018-01-18 05:00:00 -2.4 2 Nordeste 5 Este 0 -- -- 91
2018-01-18 04:00:00 -2.2 2 Este 6 Nordeste 0 -- -- 90
2018-01-18 03:00:00 -1.8 2 Este 6 Nordeste 0 -- -- 90
2018-01-18 02:00:00 -1.3 3 Este 6 Este 0 -- -- 90
2018-01-18 01:00:00 -0.6 0 Calma 6 Norte 0 -- -- 89
2018-01-18 00:00:00 -0.1 3 Este 8 Nordeste 0 -- -- 87
2018-01-17 23:00:00 1.1 3 Nordeste 8 Este 0 -- -- 84
2018-01-17 22:00:00 2.6 0 Calma 5 Sudoeste 0 -- -- 78
2018-01-17 21:00:00 3.7 2 Norte 12 Sur 0 -- -- 73
2018-01-17 20:00:00 4.4 2 Este 9 Nordeste 0 -- -- 70
2018-01-17 19:00:00 6.5 4 Nordeste 10 Nordeste 0 -- -- 62
2018-01-17 18:00:00 8.5 5 Nordeste 20 Nordeste 0 -- -- 55
2018-01-17 17:00:00 10.1 8 Nordeste 25 Nordeste 0 -- -- 51
2018-01-17 16:00:00 11.8 8 Norte 24 Noroeste 0 -- -- 47
2018-01-17 15:00:00 12.5 9 Noroeste 26 Norte 0 -- -- 42
2018-01-17 14:00:00 11.1 13 Oeste 31 Norte 0 -- -- 47
2018-01-17 13:00:00 10.9 12 Noroeste 34 Norte 0 -- -- 51
2018-01-17 12:00:00 10.1 9 Noroeste 36 Noroeste 0 -- -- 58
2018-01-17 11:00:00 9.1 8 Oeste 22 Sudoeste 0 -- -- 72
2018-01-17 10:00:00 8.2 8 Sudoeste 17 Oeste 0 -- -- 79
2018-01-17 09:00:00 7.1 3 Nordeste 24 Sudoeste 0 -- -- 82
2018-01-17 08:00:00 8.4 7 Oeste 26 Sudoeste 0 -- -- 76
2018-01-17 07:00:00 9 4 Sudoeste 18 Oeste 0 -- -- 74
2018-01-17 06:00:00 9.2 5 Sudoeste 17 Oeste 0 -- -- 76
2018-01-17 05:00:00 9.3 5 Sudoeste 25 Sudoeste 0 -- -- 76
2018-01-17 04:00:00 9.5 9 Sudoeste 22 Sudoeste 0 -- -- 74
2018-01-17 03:00:00 9.8 10 Oeste 28 Sudoeste 0 -- -- 73
2018-01-17 02:00:00 9.9 13 Sudoeste 27 Sudoeste 0 -- -- 72
2018-01-17 01:00:00 9.6 13 Sudoeste 32 Oeste 0 -- -- 73
2018-01-17 00:00:00 9.5 8 Sudoeste 19 Oeste 0 -- -- 73
2018-01-16 23:00:00 9.6 8 Sudoeste 27 Oeste 0 -- -- 73
2018-01-16 22:00:00 9.5 6 Oeste 24 Sudoeste 0 -- -- 74
2018-01-16 21:00:00 9.1 7 Oeste 21 Sudoeste 0 -- -- 76
2018-01-16 20:00:00 9.3 5 Sudoeste 14 Noroeste 0 -- -- 78
2018-01-16 19:00:00 9.5 4 Oeste 21 Sudoeste 0 -- -- 79
2018-01-16 18:00:00 10 6 Noroeste 25 Oeste 0 -- -- 76
2018-01-16 17:00:00 10.3 0 Calma 28 Oeste 0 -- -- 75
2018-01-16 16:00:00 10.6 12 Oeste 41 Oeste 0 -- -- 74
2018-01-16 15:00:00 11 18 Oeste 34 Oeste 0 -- -- 70
2018-01-16 14:00:00 10.4 16 Oeste 37 Oeste 0 -- -- 72
2018-01-16 13:00:00 9.5 12 Oeste 28 Oeste 0 -- -- 74
2018-01-16 12:00:00 8.1 5 Sudoeste 17 Oeste 0 -- -- 77
2018-01-16 11:00:00 5.7 0 Calma 5 Sudoeste 0 -- -- 77
2018-01-16 10:00:00 4.7 0 Calma 6 Sudeste 0 -- -- 81
2018-01-16 09:00:00 3.9 2 Este 6 Norte 0 -- -- 82
2018-01-16 08:00:00 3.3 2 Sudeste 7 Sudeste 0 -- -- 84
2018-01-16 07:00:00 2.8 0 Calma 6 Nordeste 0 -- -- 86
2018-01-16 06:00:00 2.3 0 Calma 8 Nordeste 0 -- -- 87
2018-01-16 05:00:00 1.7 2 Nordeste 8 Nordeste 0 -- -- 89
2018-01-16 04:00:00 0.9 2 Nordeste 6 Norte 0 -- -- 90
2018-01-16 03:00:00 -0.3 0 Calma 6 Nordeste 0 -- -- 92
2018-01-16 02:00:00 -0.8 3 Nordeste 8 Norte 0 -- -- 91
2018-01-16 01:00:00 -0.6 0 Calma 7 Nordeste 0 -- -- 90
2018-01-16 00:00:00 0.1 0 Calma 5 Sudeste 0 -- -- 88
2018-01-15 23:00:00 1 4 Nordeste 8 Nordeste 0 -- -- 86
2018-01-15 22:00:00 2.5 0 Calma 9 Sudoeste 0 -- -- 81
2018-01-15 21:00:00 3.7 4 Sudoeste 11 Sur 0 -- -- 78
2018-01-15 20:00:00 4.8 4 Sur 11 Oeste 0 -- -- 73
2018-01-15 19:00:00 5.4 4 Sudoeste 10 Sudoeste 0 -- -- 68
2018-01-15 18:00:00 6.1 5 Oeste 22 Oeste 0 -- -- 63
2018-01-15 17:00:00 6.6 8 Oeste 23 Oeste 0 -- -- 64
2018-01-15 16:00:00 6.6 6 Oeste 24 Oeste 0 -- -- 65
2018-01-15 15:00:00 6.8 8 Oeste 22 Oeste 0 -- -- 65
2018-01-15 14:00:00 6.5 3 Sur 9 Sudoeste 0 -- -- 69
2018-01-15 13:00:00 4.5 2 Sudoeste 9 Oeste 0 -- -- 76
2018-01-15 12:00:00 2.7 4 Sudoeste 9 Sudoeste 0 -- -- 83
2018-01-15 11:00:00 1.5 4 Sur 11 Sudoeste 0 -- -- 88
2018-01-15 10:00:00 0.5 4 Sudoeste 7 Sudoeste 0 -- -- 91
2018-01-15 09:00:00 -0.1 2 Oeste 9 Nordeste 0 -- -- 92
2018-01-15 08:00:00 0.6 4 Norte 17 Oeste 0 -- -- 88
2018-01-15 07:00:00 1.1 9 Oeste 19 Oeste 0 -- -- 86
2018-01-15 06:00:00 0.9 0 Calma 8 Norte 0 -- -- 91
2018-01-15 05:00:00 0.6 0 Calma 6 Oeste 0 -- -- 92
2018-01-15 04:00:00 0.4 3 Sudoeste 7 Sur 0 -- -- 92
2018-01-15 03:00:00 0.6 0 Calma 6 Noroeste 0 -- -- 92
2018-01-15 02:00:00 0.3 2 Este 9 Sudoeste 0 -- -- 90
2018-01-15 01:00:00 1.9 6 Sudoeste 14 Oeste 0 -- -- 87
2018-01-15 00:00:00 2.3 2 Nordeste 11 Oeste 0 -- -- 85
2018-01-14 23:00:00 2.8 3 Oeste 11 Sudoeste 0 -- -- 84
2018-01-14 22:00:00 3.2 5 Noroeste 14 Oeste 0 -- -- 82
2018-01-14 21:00:00 3.5 5 Oeste 17 Oeste 0 -- -- 82
2018-01-14 20:00:00 3.9 6 Sudoeste 12 Oeste 0 -- -- 81
2018-01-14 19:00:00 4 0 Calma 8 Noroeste 0 -- -- 81
2018-01-14 18:00:00 4.5 3 Noroeste 16 Oeste 0 -- -- 78
2018-01-14 17:00:00 5.1 3 Noroeste 17 Noroeste 0 -- -- 76
2018-01-14 16:00:00 5.2 6 Norte 22 Noroeste 0 -- -- 77
2018-01-14 15:00:00 5.8 8 Oeste 27 Sudoeste 0 -- -- 67
2018-01-14 14:00:00 5.4 13 Oeste 24 Sudoeste 0 -- -- 67
2018-01-14 13:00:00 4.8 10 Sudoeste 19 Sudoeste 0 -- -- 73
2018-01-14 12:00:00 3.8 5 Oeste 17 Oeste 0 -- -- 80
2018-01-14 11:00:00 3.7 3 Nordeste 11 Sudoeste 0 -- -- 81
2018-01-14 10:00:00 3.1 5 Sudoeste 14 Oeste 0 -- -- 83
2018-01-14 09:00:00 1.9 3 Norte 12 Sudoeste 0 -- -- 90
2018-01-14 08:00:00 2.4 4 Oeste 10 Sudoeste 0 -- -- 86
2018-01-14 07:00:00 2.6 4 Nordeste 14 Oeste 0 -- -- 87
2018-01-14 06:00:00 3.1 5 Oeste 14 Noroeste 0 -- -- 81
2018-01-14 05:00:00 3.2 6 Sudoeste 19 Oeste 0 -- -- 83
2018-01-14 04:00:00 3.3 6 Oeste 23 Sudoeste 0 -- -- 81
2018-01-14 03:00:00 3.1 6 Oeste 23 Oeste 0 -- -- 84
2018-01-14 02:00:00 3.4 10 Oeste 30 Oeste 0 -- -- 82
2018-01-14 01:00:00 3.4 6 Oeste 17 Sudoeste 0 -- -- 84
2018-01-14 00:00:00 2.5 4 Sur 7 Sudoeste 0 -- -- 91
2018-01-13 23:00:00 1.9 0 Calma 5 Norte 0 -- -- 94
2018-01-13 22:00:00 1.9 2 Este 7 Nordeste 0.2 -- -- 92
2018-01-13 21:00:00 2.4 2 Norte 8 Sudoeste 1.6 -- -- 89
2018-01-13 20:00:00 3.6 6 Sudoeste 17 Noroeste 1.2 -- -- 85
2018-01-13 19:00:00 4.8 0 Calma 20 Sudoeste 0 -- -- 71
2018-01-13 18:00:00 4.9 0 Calma 12 Este 0 -- -- 71
2018-01-13 17:00:00 6.2 4 Oeste 14 Noroeste 0 -- -- 64
2018-01-13 16:00:00 7 2 Noroeste 14 Oeste 0 -- -- 58
2018-01-13 15:00:00 6.8 0 Calma 8 Sudeste 0 -- -- 58
2018-01-13 14:00:00 6.9 3 Sudeste 12 Sur 0 -- -- 59
2018-01-13 13:00:00 6 2 Noroeste 12 Sudeste 0 -- -- 63
2018-01-13 12:00:00 4.7 3 Sudeste 6 Este 0 -- -- 66
2018-01-13 11:00:00 3 0 Calma 6 Noroeste 0 -- -- 75
2018-01-13 10:00:00 1.8 0 Calma 10 Sudoeste 0 -- -- 79
2018-01-13 09:00:00 1.2 3 Sur 8 Sur 0 -- -- 80
2018-01-13 08:00:00 0 0 Calma 6 Oeste 0 -- -- 87
2018-01-13 07:00:00 0.3 4 Oeste 10 Oeste 0 -- -- 85
2018-01-13 06:00:00 0.3 2 Norte 7 Nordeste 0 -- -- 87
2018-01-13 05:00:00 0.6 2 Este 7 Oeste 0 -- -- 85
2018-01-13 04:00:00 -0.7 3 Oeste 5 Noroeste 0 -- -- 93
2018-01-13 03:00:00 -1.3 3 Este 8 Nordeste 0 -- -- 91
2018-01-13 02:00:00 -1.2 2 Este 11 Nordeste 0 -- -- 91
2018-01-13 01:00:00 -0.8 3 Nordeste 9 Este 0 -- -- 91
2018-01-13 00:00:00 -0.4 2 Nordeste 6 Nordeste 0 -- -- 90
2018-01-12 23:00:00 0.3 2 Este 6 Nordeste 0 -- -- 88
2018-01-12 22:00:00 0.4 2 Este 5 Nordeste 0 -- -- 87
2018-01-12 21:00:00 0.6 2 Este 7 Nordeste 0 -- -- 86
2018-01-12 20:00:00 1.6 3 Este 7 Este 0 -- -- 82
2018-01-12 19:00:00 3.5 2 Este 8 Sur 0 -- -- 75
2018-01-12 18:00:00 5.6 6 Sudoeste 21 Oeste 0 -- -- 66
2018-01-12 17:00:00 6.9 12 Sudoeste 28 Oeste 0 -- -- 61
2018-01-12 16:00:00 7.5 9 Oeste 22 Sudoeste 0 -- -- 60
2018-01-12 15:00:00 7.4 10 Sudoeste 22 Oeste 0 -- -- 62
2018-01-12 14:00:00 6.1 7 Oeste 23 Sudoeste 0 -- -- 68
2018-01-12 13:00:00 6.1 12 Sudoeste 25 Sudoeste 0 -- -- 70
2018-01-12 12:00:00 5.1 12 Oeste 21 Sudoeste 0 -- -- 75
2018-01-12 11:00:00 3.9 7 Oeste 22 Oeste 0 -- -- 79
2018-01-12 10:00:00 3.2 5 Oeste 15 Oeste 0 -- -- 82
2018-01-12 09:00:00 1.9 2 Oeste 8 Oeste 0 -- -- 88
2018-01-12 08:00:00 1.4 2 Oeste 13 Sudoeste 0 -- -- 90
2018-01-12 07:00:00 0.5 0 Calma 6 Norte 0 -- -- 93
2018-01-12 06:00:00 1 3 Este 14 Sudoeste 0 -- -- 90
2018-01-12 05:00:00 3 3 Sudoeste 12 Sudoeste 0 -- -- 84
2018-01-12 04:00:00 3.2 3 Noroeste 14 Oeste 0 -- -- 84
2018-01-12 03:00:00 3.5 4 Oeste 16 Oeste 0 -- -- 83
2018-01-12 02:00:00 3.5 5 Oeste 23 Oeste 0 -- -- 83
2018-01-12 01:00:00 3.3 8 Oeste 18 Sudoeste 0 -- -- 83
2018-01-12 00:00:00 3.2 4 Nordeste 27 Oeste 0.2 -- -- 85
2018-01-11 23:00:00 3.1 9 Sudoeste 21 Sudoeste 0 -- -- 84
2018-01-11 22:00:00 2.2 5 Norte 20 Noroeste 0.4 -- -- 91
2018-01-11 21:00:00 1.9 4 Norte 10 Nordeste 1 -- -- 91
2018-01-11 20:00:00 2.7 6 Oeste 27 Oeste 1.2 -- -- 87
2018-01-11 19:00:00 4.3 14 Oeste 35 Noroeste 0.4 -- -- 76
2018-01-11 18:00:00 5.4 12 Oeste 27 Oeste 0 -- -- 60
2018-01-11 17:00:00 5.9 12 Oeste 36 Oeste 0 -- -- 58
2018-01-11 16:00:00 6.6 14 Oeste 42 Sudoeste 0 -- -- 53
2018-01-11 15:00:00 6.9 14 Oeste 40 Oeste 0 -- -- 54
2018-01-11 14:00:00 5.9 22 Oeste 45 Oeste 0 -- -- 57
2018-01-11 13:00:00 5.5 18 Oeste 48 Oeste 0 -- -- 57
2018-01-11 12:00:00 5 18 Oeste 42 Sudoeste 0 -- -- 62
2018-01-11 11:00:00 4 12 Oeste 40 Noroeste 0 -- -- 65
2018-01-11 10:00:00 3.5 11 Oeste 32 Sudoeste 0 -- -- 66
2018-01-11 09:00:00 3.8 11 Sudoeste 33 Sudoeste 0 -- -- 70
2018-01-11 08:00:00 3.9 9 Oeste 27 Oeste 0 -- -- 70
2018-01-11 07:00:00 3.4 6 Sudoeste 22 Sudoeste 0 -- -- 75
2018-01-11 06:00:00 3.6 10 Sudoeste 23 Sudoeste 0 -- -- 69
2018-01-11 05:00:00 3 12 Sudoeste 33 Oeste 0 -- -- 68
2018-01-11 04:00:00 3.1 13 Sudoeste 25 Oeste 0 -- -- 68
2018-01-11 03:00:00 3.2 9 Oeste 28 Oeste 0 -- -- 68
2018-01-11 02:00:00 3.6 11 Oeste 32 Sudoeste 0 -- -- 68
2018-01-11 01:00:00 3.9 10 Sudoeste 36 Oeste 0 -- -- 66
2018-01-11 00:00:00 4.4 14 Oeste 50 Oeste 0 -- -- 64
2018-01-10 23:00:00 5 22 Oeste 56 Sudoeste 0 -- -- 63
2018-01-10 22:00:00 5.5 19 Oeste 38 Oeste 0 -- -- 67
2018-01-10 21:00:00 6.3 11 Oeste 36 Oeste 0 -- -- 63
2018-01-10 20:00:00 6.6 20 Sudoeste 44 Sudoeste 0 -- -- 69
2018-01-10 19:00:00 6.7 21 Sudoeste 43 Sudoeste 0 -- -- 69
2018-01-10 18:00:00 7 10 Oeste 38 Sudoeste 0 -- -- 68
2018-01-10 17:00:00 7 21 Oeste 50 Sudoeste 0 -- -- 70
2018-01-10 16:00:00 7.2 20 Sudoeste 36 Sudoeste 0 -- -- 67
2018-01-10 15:00:00 7.9 15 Oeste 42 Oeste 0 -- -- 62
2018-01-10 14:00:00 8.1 19 Sudoeste 38 Sudoeste 0 -- -- 63
2018-01-10 13:00:00 7.7 18 Sudoeste 34 Sudoeste 0 -- -- 69
2018-01-10 12:00:00 6.9 13 Sudoeste 23 Sudoeste 0 -- -- 71
2018-01-10 11:00:00 5.4 4 Sudoeste 8 Sudoeste 0 -- -- 81
2018-01-10 10:00:00 3.3 0 Calma 4 Este 0 -- -- 89
2018-01-10 09:00:00 2.5 0 Calma 5 Sudoeste 0 -- -- 91
2018-01-10 08:00:00 2.3 0 Calma 6 Norte 0 -- -- 90
2018-01-10 07:00:00 2.4 0 Calma 5 Sudeste 0 -- -- 89
2018-01-10 06:00:00 2.8 0 Calma 6 Sur 0 -- -- 88
2018-01-10 05:00:00 3.1 2 Sudoeste 6 Oeste 0 -- -- 87
2018-01-10 04:00:00 4 0 Calma 8 Oeste 0 -- -- 83
2018-01-10 03:00:00 3.8 0 Calma 4 Norte 0 -- -- 84
2018-01-10 02:00:00 3.7 0 Calma 93 Este 0 -- -- 85
2018-01-10 01:00:00 3.6 3 Nordeste 6 Norte 0 -- -- 84
2018-01-10 00:00:00 3.5 6 Norte 20 Sudoeste 0 -- -- 84
2018-01-09 23:00:00 3.8 3 Sur 33 Sudoeste 0 -- -- 81
2018-01-09 22:00:00 3.5 5 Sudoeste 17 Sur 0 -- -- 77
2018-01-09 21:00:00 3.5 3 Sudeste 24 Sur 0 -- -- 79
2018-01-09 20:00:00 4.4 5 Oeste 16 Noroeste 0 -- -- 65
2018-01-09 19:00:00 4 4 Oeste 12 Sudoeste 0 -- -- 67
2018-01-09 18:00:00 4 8 Oeste 31 Sudoeste 0 -- -- 67
2018-01-09 17:00:00 4.9 11 Oeste 28 Sudoeste 0 -- -- 60
2018-01-09 16:00:00 5.3 10 Oeste 28 Oeste 0 -- -- 59
2018-01-09 15:00:00 5.5 9 Oeste 33 Oeste 0 -- -- 59
2018-01-09 14:00:00 5.6 9 Sudoeste 34 Oeste 0 -- -- 60
2018-01-09 13:00:00 5.1 6 Oeste 24 Oeste 0 -- -- 62
2018-01-09 12:00:00 3.9 9 Sudoeste 28 Sudoeste 0 -- -- 69
2018-01-09 11:00:00 2 5 Sudoeste 19 Sur 0 -- -- 75
2018-01-09 10:00:00 -3.9 2 Este 7 Nordeste 0 -- -- 93
2018-01-09 09:00:00 -5.9 3 Nordeste 6 Este 0 -- -- 89
2018-01-09 08:00:00 -6 2 Este 6 Este 0 -- -- 90
2018-01-09 07:00:00 -6.3 0 Calma 8 Norte 0 -- -- 90
2018-01-09 06:00:00 -6.2 3 Este 6 Norte 0 -- -- 89
2018-01-09 05:00:00 -5.9 3 Este 5 Este 0 -- -- 89
2018-01-09 04:00:00 -5.4 2 Nordeste 5 Norte 0 -- -- 89
2018-01-09 03:00:00 -5 2 Este 6 Nordeste 0 -- -- 90
2018-01-09 02:00:00 -4.5 3 Nordeste 9 Norte 0 -- -- 90
2018-01-09 01:00:00 -4.1 0 Calma 5 Sudeste 0 -- -- 90
2018-01-09 00:00:00 -3.7 2 Este 4 Sudeste 0 -- -- 90
2018-01-08 23:00:00 -3.1 2 Este 6 Nordeste 0 -- -- 89
2018-01-08 22:00:00 -2.5 2 Este 5 Nordeste 0 -- -- 88
2018-01-08 21:00:00 -2 2 Este 7 Nordeste 0 -- -- 87
2018-01-08 20:00:00 -1.3 0 Calma 8 Este 0 -- -- 85
2018-01-08 19:00:00 0.2 2 Nordeste 8 Este 0 -- -- 79
2018-01-08 18:00:00 2.6 0 Calma 6 Norte 0 -- -- 70
2018-01-08 17:00:00 4.7 2 Sudeste 13 Este 0 -- -- 61
2018-01-08 16:00:00 5.7 7 Nordeste 14 Este 0 -- -- 60
2018-01-08 15:00:00 7.7 6 Norte 15 Sudeste 0 -- -- 52
2018-01-08 14:00:00 6.9 5 Sudoeste 12 Oeste 0 -- -- 58
2018-01-08 13:00:00 3.4 8 Sudoeste 14 Sudoeste 0 -- -- 75
2018-01-08 12:00:00 0.1 2 Sur 4 Sudeste 0 -- -- 85
2018-01-08 11:00:00 -2.4 0 Calma 6 Sudoeste 0 -- -- 89
2018-01-08 10:00:00 -4.4 0 Calma 3 Este 0 -- -- 93
2018-01-08 09:00:00 -5.4 0 Calma 8 Este 0 -- -- 90
2018-01-08 08:00:00 -5 3 Este 5 Este 0 -- -- 90
2018-01-08 07:00:00 -4.5 0 Calma 5 Norte 0 -- -- 91
2018-01-08 06:00:00 -3.8 0 Calma 5 Este 0 -- -- 91
2018-01-08 05:00:00 -3.9 0 Calma 4 Nordeste 0 -- -- 91
2018-01-08 04:00:00 -3.9 0 Calma 5 Nordeste 0 -- -- 91
2018-01-08 03:00:00 -3.7 0 Calma 5 Nordeste 0 -- -- 91
2018-01-08 02:00:00 -3.1 2 Nordeste 6 Este 0 -- -- 91
2018-01-08 01:00:00 -2.5 0 Calma 6 Este 0 -- -- 91
2018-01-08 00:00:00 -2.2 0 Calma 6 Norte 0 -- -- 90
2018-01-07 23:00:00 -1.9 0 Calma 5 Nordeste 0 -- -- 90
2018-01-07 22:00:00 -1.4 0 Calma 8 Este 0 -- -- 89
2018-01-07 21:00:00 -0.3 3 Nordeste 8 Este 0 -- -- 87
2018-01-07 20:00:00 1.1 3 Nordeste 7 Sudeste 0 -- -- 85
2018-01-07 19:00:00 2.5 4 Este 10 Norte 0 -- -- 84
2018-01-07 18:00:00 4.1 3 Nordeste 14 Norte 0 -- -- 79
2018-01-07 17:00:00 6.1 4 Este 17 Sudeste 0 -- -- 57
2018-01-07 16:00:00 7.4 5 Sudeste 19 Sur 0 -- -- 55
2018-01-07 15:00:00 7.5 7 Sudeste 24 Sudeste 0 -- -- 55
2018-01-07 14:00:00 7.1 5 Sudoeste 14 Sudeste 0 -- -- 63
2018-01-07 13:00:00 4.8 3 Sudoeste 9 Sur 0 -- -- 77
2018-01-07 12:00:00 3.3 2 Este 9 Nordeste 0 -- -- 86
2018-01-07 11:00:00 2.1 2 Este 10 Nordeste 0 -- -- 88
2018-01-07 10:00:00 1.4 3 Este 12 Este 0 -- -- 92
2018-01-07 09:00:00 0.9 4 Este 12 Este 0 -- -- 93
2018-01-07 08:00:00 0.9 5 Nordeste 13 Este 0 -- -- 93
2018-01-07 07:00:00 0.9 0 Calma 7 Nordeste 0 -- -- 94
2018-01-07 06:00:00 0.7 2 Norte 6 Norte 0 -- -- 92
2018-01-07 05:00:00 0.6 0 Calma 7 Este 0 -- -- 93
2018-01-07 04:00:00 0.4 4 Nordeste 16 Nordeste 0 -- -- 93
2018-01-07 03:00:00 0.6 3 Nordeste 11 Este 0 -- -- 93
2018-01-07 02:00:00 0.5 2 Nordeste 13 Norte 0 -- -- 94
2018-01-07 01:00:00 0.4 5 Nordeste 15 Norte 0 -- -- 93
2018-01-07 00:00:00 0.6 5 Nordeste 11 Norte 0.2 -- -- 91
2018-01-06 23:00:00 0.6 2 Nordeste 13 Este 0.8 -- -- 94
2018-01-06 22:00:00 0.8 5 Este 17 Sudeste 0.2 -- -- 91
2018-01-06 21:00:00 1.3 4 Nordeste 22 Norte 0.4 -- -- 90
2018-01-06 20:00:00 1.5 6 Nordeste 26 Nordeste 0 -- -- 93
2018-01-06 19:00:00 2.1 9 Nordeste 23 Nordeste 0 -- -- 94
2018-01-06 18:00:00 2.3 9 Nordeste 22 Nordeste 0.4 -- -- 94
2018-01-06 17:00:00 2.4 8 Nordeste 28 Nordeste 0 -- -- 94
2018-01-06 16:00:00 2.8 9 Nordeste 26 Norte 0.2 -- -- 93
2018-01-06 15:00:00 3.4 13 Nordeste 23 Norte 0 -- -- 91
2018-01-06 14:00:00 3.5 9 Nordeste 24 Nordeste 0 -- -- 91
2018-01-06 13:00:00 3.5 8 Nordeste 21 Nordeste 0 -- -- 90
2018-01-06 12:00:00 3.4 8 Nordeste 19 Nordeste 0 -- -- 89
2018-01-06 11:00:00 3.1 8 Nordeste 18 Norte 0 -- -- 90
2018-01-06 10:00:00 3.2 5 Nordeste 14 Nordeste 0.2 -- -- 91
2018-01-06 09:00:00 2.9 5 Nordeste 19 Nordeste 0 -- -- 93
2018-01-06 08:00:00 3.8 8 Nordeste 15 Nordeste 0 -- -- 91
2018-01-06 07:00:00 3.6 0 Calma 6 Sudoeste 0 -- -- 90
2018-01-06 06:00:00 3.7 2 Norte 34 Oeste 0.6 -- -- 88
2018-01-06 05:00:00 4.5 17 Oeste 43 Oeste 0.2 -- -- 85
2018-01-06 04:00:00 8.5 5 Sudeste 16 Sudeste 0 -- -- 71
2018-01-06 03:00:00 8.8 5 Sudeste 16 Sudeste 0 -- -- 68
2018-01-06 02:00:00 9.1 4 Sudeste 13 Sur 0 -- -- 67
2018-01-06 01:00:00 9.2 3 Nordeste 15 Este 0 -- -- 65
2018-01-06 00:00:00 9.1 5 Este 26 Sur 0 -- -- 65
2018-01-05 23:00:00 9 6 Sur 20 Este 0 -- -- 65
2018-01-05 22:00:00 9.4 9 Este 19 Nordeste 0 -- -- 65
2018-01-05 21:00:00 9.5 3 Este 14 Sudeste 0 -- -- 65
2018-01-05 20:00:00 9.9 12 Sudoeste 24 Sudoeste 0 -- -- 63
2018-01-05 19:00:00 10.2 12 Oeste 25 Oeste 0 -- -- 60
2018-01-05 18:00:00 10.4 6 Oeste 36 Sudoeste 0 -- -- 60
2018-01-05 17:00:00 11.2 8 Noroeste 30 Oeste 0 -- -- 57
2018-01-05 16:00:00 12.3 12 Oeste 40 Sudoeste 0 -- -- 54
2018-01-05 15:00:00 12.9 17 Oeste 50 Sudoeste 0 -- -- 50
2018-01-05 14:00:00 12.1 19 Oeste 42 Sudoeste 0 -- -- 52
2018-01-05 13:00:00 11.2 22 Sudoeste 44 Sudoeste 0 -- -- 53
2018-01-05 12:00:00 10.8 12 Oeste 27 Sudoeste 0 -- -- 58
2018-01-05 11:00:00 10.3 11 Oeste 25 Oeste 0 -- -- 59
2018-01-05 10:00:00 9.7 6 Sudoeste 24 Sudoeste 0 -- -- 63
2018-01-05 09:00:00 9.5 14 Sudoeste 39 Sudoeste 0 -- -- 63
2018-01-05 08:00:00 9.5 21 Sudoeste 47 Sudoeste 0 -- -- 66
2018-01-05 07:00:00 9.2 16 Sudoeste 37 Oeste 0 -- -- 67
2018-01-05 06:00:00 9.7 18 Oeste 39 Sudoeste 0 -- -- 66
2018-01-05 05:00:00 9.8 12 Oeste 33 Sudoeste 0 -- -- 67
2018-01-05 04:00:00 9.7 7 Oeste 27 Sudoeste 0 -- -- 71
2018-01-05 03:00:00 9.7 21 Sudoeste 40 Sudoeste 0 -- -- 70
2018-01-05 02:00:00 9.5 9 Oeste 23 Sudoeste 0 -- -- 71
2018-01-05 01:00:00 9.8 6 Oeste 19 Sudoeste 0 -- -- 71
2018-01-05 00:00:00 10.2 6 Sudoeste 24 Sudoeste 0 -- -- 70
2018-01-04 23:00:00 10.7 14 Sudoeste 27 Sudoeste 0 -- -- 70
2018-01-04 22:00:00 10 6 Sur 15 Sur 0 -- -- 74
2018-01-04 21:00:00 10.5 6 Sudoeste 18 Sudoeste 0 -- -- 71
2018-01-04 20:00:00 11.2 10 Sudoeste 23 Sudoeste 0 -- -- 67
2018-01-04 19:00:00 11.4 14 Sudoeste 31 Oeste 0 -- -- 66
2018-01-04 18:00:00 11.7 15 Sudoeste 33 Sudoeste 0 -- -- 64
2018-01-04 17:00:00 12.8 17 Sudoeste 35 Sudoeste 0 -- -- 61
2018-01-04 16:00:00 13.3 17 Oeste 38 Sudoeste 0 -- -- 58
2018-01-04 15:00:00 13.7 20 Sudoeste 48 Sudoeste 0 -- -- 56
2018-01-04 14:00:00 13.9 22 Sudoeste 41 Sudoeste 0 -- -- 56
2018-01-04 13:00:00 13.9 19 Oeste 43 Oeste 0 -- -- 57
2018-01-04 12:00:00 13.3 23 Sudoeste 42 Oeste 0 -- -- 60
2018-01-04 11:00:00 12.9 18 Oeste 43 Oeste 0 -- -- 61
2018-01-04 10:00:00 12.3 21 Oeste 42 Oeste 0 -- -- 64
2018-01-04 09:00:00 11.9 18 Sudoeste 38 Sudoeste 0 -- -- 69
2018-01-04 08:00:00 11.9 19 Oeste 43 Sudoeste 0 -- -- 71
2018-01-04 07:00:00 12.2 19 Oeste 37 Sudoeste 0 -- -- 71
2018-01-04 06:00:00 12.4 15 Oeste 28 Oeste 0 -- -- 72
2018-01-04 05:00:00 12.5 11 Sudoeste 22 Oeste 0 -- -- 72
2018-01-04 04:00:00 12.6 2 Este 24 Oeste 0 -- -- 72
2018-01-04 03:00:00 12.8 8 Oeste 24 Sudoeste 0 -- -- 72
2018-01-04 02:00:00 13 11 Sudoeste 22 Sudoeste 0 -- -- 72
2018-01-04 01:00:00 13.1 6 Sudoeste 19 Oeste 0 -- -- 74
2018-01-04 00:00:00 13.1 9 Oeste 19 Oeste 0 -- -- 73
2018-01-03 23:00:00 12.9 8 Oeste 25 Oeste 0 -- -- 74
2018-01-03 22:00:00 12.9 12 Oeste 25 Oeste 0 -- -- 73
2018-01-03 21:00:00 12.8 8 Sudoeste 22 Sudoeste 0 -- -- 73
2018-01-03 20:00:00 13 10 Sudoeste 24 Sudoeste 0 -- -- 72
2018-01-03 19:00:00 13.1 14 Sudoeste 30 Sudoeste 0 -- -- 72
2018-01-03 18:00:00 13.5 10 Oeste 27 Sudoeste 0 -- -- 70
2018-01-03 17:00:00 14 10 Sudoeste 30 Sudoeste 0 -- -- 68
2018-01-03 16:00:00 14.3 10 Oeste 35 Sudoeste 0 -- -- 67
2018-01-03 15:00:00 15 11 Oeste 36 Sudoeste 0 -- -- 64
2018-01-03 14:00:00 14.3 15 Oeste 37 Oeste 0 -- -- 66
2018-01-03 13:00:00 14.2 14 Oeste 34 Oeste 0 -- -- 67
2018-01-03 12:00:00 13.4 12 Oeste 43 Oeste 0 -- -- 70
2018-01-03 11:00:00 12.7 4 Sudoeste 24 Oeste 0 -- -- 71
2018-01-03 10:00:00 12.2 8 Sudoeste 22 Sudoeste 0 -- -- 73
2018-01-03 09:00:00 11.6 2 Sudoeste 11 Sudoeste 0 -- -- 76
2018-01-03 08:00:00 11.6 5 Sudoeste 15 Sudoeste 0 -- -- 77
2018-01-03 07:00:00 11.7 8 Oeste 22 Oeste 0 -- -- 77
2018-01-03 06:00:00 11.8 9 Oeste 21 Sudoeste 0 -- -- 76
2018-01-03 05:00:00 11.8 5 Oeste 22 Oeste 0 -- -- 75
2018-01-03 04:00:00 11.9 9 Oeste 22 Oeste 0 -- -- 73
2018-01-03 03:00:00 11.9 10 Sudoeste 25 Oeste 0 -- -- 75
2018-01-03 02:00:00 11.9 10 Sudoeste 25 Sudoeste 0 -- -- 73
2018-01-03 01:00:00 11.7 10 Sudoeste 26 Noroeste 0 -- -- 74
2018-01-03 00:00:00 11.4 11 Sudoeste 24 Sudoeste 0 -- -- 74
2018-01-02 23:00:00 11.1 11 Sudoeste 19 Sudoeste 0 -- -- 72
2018-01-02 22:00:00 11.2 6 Oeste 16 Oeste 0 -- -- 72
2018-01-02 21:00:00 11 4 Oeste 23 Sudoeste 0 -- -- 73
2018-01-02 20:00:00 11 8 Sudoeste 31 Oeste 0 -- -- 72
2018-01-02 19:00:00 11.1 10 Sudoeste 25 Oeste 0 -- -- 71
2018-01-02 18:00:00 11.2 5 Sudoeste 13 Oeste 0 -- -- 68
2018-01-02 17:00:00 12 7 Oeste 31 Oeste 0 -- -- 65
2018-01-02 16:00:00 12.6 13 Oeste 40 Oeste 0 -- -- 62
2018-01-02 15:00:00 13.7 16 Oeste 40 Oeste 0 -- -- 58
2018-01-02 14:00:00 12.4 14 Oeste 40 Oeste 0 -- -- 61
2018-01-02 13:00:00 11.3 16 Oeste 38 Oeste 0 -- -- 63
2018-01-02 12:00:00 10.2 12 Oeste 40 Oeste 0 -- -- 64
2018-01-02 11:00:00 9.3 13 Oeste 34 Sudoeste 0 -- -- 67
2018-01-02 10:00:00 8.7 21 Sudoeste 46 Oeste 0 -- -- 68
2018-01-02 09:00:00 8.1 12 Oeste 30 Sudoeste 0 -- -- 69
2018-01-02 08:00:00 8.3 18 Sudoeste 35 Sudoeste 0 -- -- 68
2018-01-02 07:00:00 8.5 13 Sudoeste 37 Noroeste 0 -- -- 68
2018-01-02 06:00:00 8.7 13 Sudoeste 41 Oeste 0 -- -- 68
2018-01-02 05:00:00 8.8 20 Sudoeste 37 Sudoeste 0 -- -- 71
2018-01-02 04:00:00 8.6 11 Sudoeste 31 Oeste 0 -- -- 78
2018-01-02 03:00:00 9.1 9 Oeste 21 Sudoeste 0 -- -- 70
2018-01-02 02:00:00 9 5 Sudoeste 20 Sudoeste 0 -- -- 70
2018-01-02 01:00:00 9.3 10 Sudoeste 25 Sudoeste 0 -- -- 69
2018-01-02 00:00:00 9.4 11 Sudoeste 21 Sudoeste 0 -- -- 68
2018-01-01 23:00:00 9.6 6 Oeste 18 Oeste 0 -- -- 66
2018-01-01 22:00:00 9.3 7 Oeste 18 Sudoeste 0 -- -- 66
2018-01-01 21:00:00 8.9 9 Sudoeste 26 Sudoeste 0 -- -- 67
2018-01-01 20:00:00 9.1 12 Sudoeste 30 Sudoeste 0 -- -- 62
2018-01-01 19:00:00 9.3 13 Oeste 38 Oeste 0 -- -- 55
2018-01-01 18:00:00 9.4 15 Sudoeste 39 Sudoeste 0 -- -- 53
2018-01-01 17:00:00 10 17 Sudoeste 45 Sudoeste 0 -- -- 50
2018-01-01 16:00:00 10.4 17 Sudoeste 40 Oeste 0 -- -- 46
2018-01-01 15:00:00 10.5 24 Sudoeste 51 Sudoeste 0 -- -- 42
2018-01-01 14:00:00 10.5 21 Oeste 44 Sudoeste 0 -- -- 36
2018-01-01 13:00:00 9.6 19 Oeste 35 Sudoeste 0 -- -- 38
2018-01-01 12:00:00 7.6 12 Sudoeste 29 Sudoeste 0 -- -- 47
2018-01-01 11:00:00 5.2 4 Noroeste 24 Noroeste 0 -- -- 60
2018-01-01 10:00:00 2 5 Sur 17 Sudoeste 0 -- -- 74
2018-01-01 09:00:00 -2.4 3 Este 9 Este 0 -- -- 87
2018-01-01 08:00:00 -1.5 3 Nordeste 10 Nordeste 0 -- -- 85
2018-01-01 07:00:00 -0.8 4 Nordeste 10 Sudeste 0 -- -- 83
2018-01-01 06:00:00 1 2 Nordeste 11 Sur 0 -- -- 77
2018-01-01 05:00:00 2.9 3 Este 12 Este 0 -- -- 72
2018-01-01 04:00:00 3.9 3 Nordeste 24 Oeste 0 -- -- 67
2018-01-01 03:00:00 4.3 5 Nordeste 33 Sudoeste 0 -- -- 64
2018-01-01 02:00:00 4.3 12 Oeste 30 Sudoeste 0 -- -- 63
2018-01-01 01:00:00 4.5 12 Oeste 37 Sudoeste 0.2 -- -- 63
2018-01-01 00:00:00 5.1 11 Oeste 41 Oeste 0 -- -- 61
2017-12-31 23:00:00 6.5 12 Oeste 32 Oeste 0 -- -- 68
2017-12-31 22:00:00 7 10 Sudoeste 39 Oeste 0 -- -- 72
2017-12-31 21:00:00 7.4 14 Sudoeste 37 Oeste 0 -- -- 72
2017-12-31 20:00:00 7.8 15 Oeste 46 Sudoeste 0.2 -- -- 72
2017-12-31 19:00:00 10.2 24 Sudoeste 40 Sudoeste 0 -- -- 69
2017-12-31 18:00:00 10.2 15 Oeste 35 Oeste 0 -- -- 65
2017-12-31 17:00:00 10.7 12 Sudoeste 32 Sudoeste 0 -- -- 61
2017-12-31 16:00:00 11.3 18 Sudoeste 46 Oeste 0 -- -- 57
2017-12-31 15:00:00 12.5 17 Oeste 36 Oeste 0 -- -- 55
2017-12-31 14:00:00 10.2 9 Sudoeste 18 Sudoeste 0 -- -- 63
2017-12-31 13:00:00 6.3 4 Oeste 18 Sur 0 -- -- 79
2017-12-31 12:00:00 4.7 8 Sudoeste 15 Sur 0 -- -- 83
2017-12-31 11:00:00 3.7 3 Oeste 10 Sudoeste 0 -- -- 85
2017-12-31 10:00:00 2.6 3 Oeste 8 Oeste 0 -- -- 89
2017-12-31 09:00:00 1.4 2 Este 9 Sudeste 0 -- -- 92
2017-12-31 08:00:00 1.2 3 Nordeste 10 Sudoeste 0 -- -- 92
2017-12-31 07:00:00 1.6 2 Nordeste 11 Sudoeste 0 -- -- 90
2017-12-31 06:00:00 0.6 3 Sudeste 10 Sudeste 0 -- -- 94
2017-12-31 05:00:00 1.1 3 Nordeste 9 Sur 0 -- -- 92
2017-12-31 04:00:00 2.5 0 Calma 9 Nordeste 0 -- -- 90
2017-12-31 03:00:00 4.7 3 Sudoeste 11 Sudoeste 0 -- -- 86
2017-12-31 02:00:00 6.2 2 Sudoeste 8 Sudoeste 0 -- -- 85
2017-12-31 01:00:00 5.4 0 Calma 5 Sudeste 0 -- -- 89